Time;durP1;ratioP1;P1;durP2;ratioP2;P2;SDS_P1;SDS_P2;PMS_P1;PMS_P2;Temp;Humidity;BMP_temperature;BMP_pressure;BME280_temperature;BME280_humidity;BME280_pressure;Samples;Min_cycle;Max_cycle;Signal;HPM_P1;HPM_P2
2022/06/10 00:00:25;;;;;;;4.55;2.92;;;16.40;99.90;;;;;;6312350;28;20279;-68
2022/06/10 00:03:30;;;;;;;3.15;2.92;;;16.50;99.90;;;;;;6311852;28;20314;-68
2022/06/10 00:06:36;;;;;;;5.75;3.00;;;16.50;99.90;;;;;;6312208;28;20268;-68
2022/06/10 00:09:43;;;;;;;12.02;3.80;;;16.50;99.90;;;;;;6311213;28;20306;-68
2022/06/10 00:12:49;;;;;;;24.98;4.32;;;16.50;99.90;;;;;;6311698;28;20318;-68
2022/06/10 00:15:55;;;;;;;15.27;3.97;;;16.50;99.90;;;;;;6312313;28;20270;-68
2022/06/10 00:19:01;;;;;;;6.72;3.30;;;16.40;99.90;;;;;;6311794;28;20295;-68
2022/06/10 00:22:06;;;;;;;9.85;3.47;;;16.40;99.90;;;;;;6311360;28;20270;-68
2022/06/10 00:25:14;;;;;;;7.38;3.65;;;16.40;99.90;;;;;;6312178;28;20274;-68
2022/06/10 00:28:20;;;;;;;5.65;3.55;;;16.40;99.90;;;;;;6311297;28;20294;-68
2022/06/10 00:31:26;;;;;;;5.07;3.70;;;16.40;99.90;;;;;;6311680;28;20270;-68
2022/06/10 00:34:35;;;;;;;3.78;3.47;;;16.30;99.90;;;;;;6311310;28;20302;-69
2022/06/10 00:37:41;;;;;;;4.25;3.58;;;16.30;99.90;;;;;;6311125;28;20561;-67
2022/06/10 00:40:52;;;;;;;4.97;3.80;;;16.30;99.90;;;;;;6311715;28;20270;-68
2022/06/10 00:43:57;;;;;;;16.00;3.83;;;16.30;99.90;;;;;;6311244;28;20297;-67
2022/06/10 00:47:05;;;;;;;12.50;3.90;;;16.30;99.90;;;;;;6310415;28;20275;-68
2022/06/10 00:50:22;;;;;;;9.70;3.40;;;16.20;99.90;;;;;;6311592;28;20469;-68
2022/06/10 00:53:33;;;;;;;3.55;3.22;;;16.20;99.90;;;;;;6311014;28;20298;-67
2022/06/10 00:56:44;;;;;;;3.55;3.25;;;16.20;99.90;;;;;;6311636;28;20267;-68
2022/06/10 00:59:54;;;;;;;5.78;3.13;;;16.20;99.90;;;;;;6310721;28;20299;-68
2022/06/10 01:02:59;;;;;;;3.05;2.83;;;16.20;99.90;;;;;;6311123;28;20295;-68
2022/06/10 01:06:05;;;;;;;6.00;2.85;;;16.20;99.90;;;;;;6311439;28;20440;-68
2022/06/10 01:09:11;;;;;;;8.07;3.40;;;16.20;99.90;;;;;;6310092;28;20306;-68
2022/06/10 01:12:51;;;;;;;14.40;4.03;;;16.20;99.90;;;;;;6309970;28;20262;-68
2022/06/10 01:16:02;;;;;;;22.25;4.07;;;16.20;99.90;;;;;;6310901;28;20289;-68
2022/06/10 01:19:31;;;;;;;9.13;4.05;;;16.10;99.90;;;;;;6310244;28;20294;-68
2022/06/10 01:23:15;;;;;;;12.98;4.22;;;16.00;99.90;;;;;;6310180;28;20294;-68
2022/06/10 01:31:09;;;;;;;7.50;3.58;;;15.90;99.90;;;;;;6309085;28;20270;-68
2022/06/10 01:34:26;;;;;;;11.15;4.00;;;15.90;99.90;;;;;;6310428;28;20477;-68
2022/06/10 01:37:39;;;;;;;5.20;3.45;;;16.00;99.90;;;;;;6310486;28;20294;-68
2022/06/10 01:41:04;;;;;;;4.20;3.30;;;15.90;99.90;;;;;;6310730;28;20447;-68
2022/06/10 01:44:19;;;;;;;3.25;2.83;;;16.00;99.90;;;;;;6309834;28;20451;-68
2022/06/10 01:47:31;;;;;;;3.47;3.17;;;15.90;99.90;;;;;;6309746;28;20290;-67
2022/06/10 01:50:43;;;;;;;5.03;2.90;;;16.00;99.90;;;;;;6310580;28;20270;-67
2022/06/10 01:53:55;;;;;;;2.92;2.78;;;16.00;99.90;;;;;;6309721;28;20297;-67
2022/06/10 01:57:06;;;;;;;3.67;2.90;;;15.90;99.90;;;;;;6310074;28;20462;-67
2022/06/10 02:00:16;;;;;;;3.97;2.80;;;15.90;99.90;;;;;;6312475;28;20274;-67
2022/06/10 02:03:28;;;;;;;4.80;3.28;;;15.90;99.90;;;;;;6314722;28;20294;-67
2022/06/10 02:06:37;;;;;;;5.07;3.15;;;15.90;99.90;;;;;;6315495;28;20270;-67
2022/06/10 02:09:48;;;;;;;4.55;3.30;;;15.80;99.90;;;;;;6314292;28;20314;-67
2022/06/10 02:12:56;;;;;;;3.17;2.83;;;15.80;99.90;;;;;;6314764;28;20290;-67
2022/06/10 02:16:04;;;;;;;3.75;3.38;;;15.90;99.90;;;;;;6314950;28;20286;-68
2022/06/10 02:19:17;;;;;;;4.55;2.95;;;15.90;99.90;;;;;;6314440;28;20294;-68
2022/06/10 02:22:28;;;;;;;5.32;3.20;;;15.70;99.90;;;;;;6313709;28;20299;-68
2022/06/10 02:25:40;;;;;;;3.80;3.05;;;15.70;99.90;;;;;;6314888;28;20436;-68
2022/06/10 02:28:51;;;;;;;3.00;2.90;;;15.80;99.90;;;;;;6314366;28;20294;-68
2022/06/10 02:32:00;;;;;;;3.20;3.10;;;15.80;99.90;;;;;;6314693;28;20518;-68
2022/06/10 02:35:09;;;;;;;3.78;3.40;;;15.80;99.90;;;;;;6313907;28;20298;-68
2022/06/10 02:38:24;;;;;;;3.22;2.92;;;15.70;99.90;;;;;;6314272;28;20478;-68
2022/06/10 02:41:39;;;;;;;3.22;3.00;;;15.70;99.90;;;;;;6313658;28;20270;-68
2022/06/10 02:44:52;;;;;;;3.13;2.78;;;15.90;99.90;;;;;;6313874;28;20303;-68
2022/06/10 02:48:05;;;;;;;4.45;2.78;;;16.00;99.90;;;;;;6313942;28;20294;-68
2022/06/10 02:51:16;;;;;;;2.83;2.72;;;15.90;99.90;;;;;;6313904;28;20266;-68
2022/06/10 02:54:28;;;;;;;3.85;2.90;;;15.90;99.90;;;;;;6313580;28;20294;-68
2022/06/10 03:01:13;;;;;;;8.70;3.60;;;15.90;99.90;;;;;;6313270;28;20465;-68
2022/06/10 03:04:26;;;;;;;7.82;4.18;;;15.80;99.90;;;;;;6310969;28;20290;-68
2022/06/10 03:07:44;;;;;;;9.43;3.88;;;15.90;99.90;;;;;;6312784;28;20290;-68
2022/06/10 03:11:03;;;;;;;3.67;3.33;;;15.80;99.90;;;;;;6312432;28;20388;-68
2022/06/10 03:14:12;;;;;;;3.47;3.28;;;15.80;99.90;;;;;;6313128;28;20294;-68
2022/06/10 03:17:25;;;;;;;3.42;3.08;;;15.90;99.90;;;;;;6313197;28;20291;-68
2022/06/10 03:20:40;;;;;;;3.45;2.95;;;15.90;99.90;;;;;;6313403;28;20274;-68
2022/06/10 03:23:59;;;;;;;3.47;3.17;;;16.00;99.90;;;;;;6312791;28;20294;-68
2022/06/10 03:27:11;;;;;;;3.72;2.83;;;16.00;99.90;;;;;;6313410;28;20549;-68
2022/06/10 03:30:20;;;;;;;3.10;2.90;;;16.10;99.90;;;;;;6312641;28;20274;-68
2022/06/10 03:33:30;;;;;;;6.57;3.47;;;16.20;99.90;;;;;;6312786;28;20294;-68
2022/06/10 03:36:36;;;;;;;5.70;3.17;;;16.20;99.90;;;;;;6312730;28;20450;-68
2022/06/10 03:39:43;;;;;;;4.03;3.50;;;16.30;99.90;;;;;;6312797;28;20299;-68
2022/06/10 03:42:53;;;;;;;7.38;3.28;;;16.40;99.90;;;;;;6312299;28;20294;-68
2022/06/10 03:46:02;;;;;;;3.83;3.28;;;16.40;99.90;;;;;;6312756;28;20470;-68
2022/06/10 03:49:12;;;;;;;3.10;2.75;;;16.40;99.90;;;;;;6312130;28;20294;-68
2022/06/10 03:52:21;;;;;;;4.07;2.78;;;16.50;99.90;;;;;;6312233;28;20266;-68
2022/06/10 03:55:28;;;;;;;3.13;2.60;;;16.60;99.90;;;;;;6312481;28;20291;-68
2022/06/10 03:58:33;;;;;;;3.00;2.60;;;16.60;99.90;;;;;;6311901;28;20309;-68
2022/06/10 04:01:39;;;;;;;3.00;2.80;;;16.70;99.90;;;;;;6312100;28;20267;-68
2022/06/10 04:04:45;;;;;;;2.83;2.70;;;16.80;99.90;;;;;;6311699;28;20309;-68
2022/06/10 04:07:50;;;;;;;4.60;2.60;;;16.80;99.90;;;;;;6305394;28;20386;-68
2022/06/10 04:10:57;;;;;;;2.55;2.50;;;16.90;99.90;;;;;;6280538;28;20287;-68
2022/06/10 04:14:02;;;;;;;2.42;2.33;;;17.00;99.90;;;;;;6286533;28;20295;-68
2022/06/10 04:17:07;;;;;;;2.45;2.30;;;17.00;99.90;;;;;;6286033;28;20290;-68
2022/06/10 04:20:17;;;;;;;2.53;2.42;;;16.90;99.90;;;;;;6286870;28;20458;-68
2022/06/10 04:23:23;;;;;;;2.70;2.70;;;17.10;99.90;;;;;;6286511;28;20291;-68
2022/06/10 04:26:29;;;;;;;2.85;2.65;;;17.10;99.90;;;;;;6287169;28;20279;-68
2022/06/10 04:29:34;;;;;;;2.63;2.40;;;17.10;99.90;;;;;;6286392;28;20308;-68
2022/06/10 04:32:39;;;;;;;3.75;2.40;;;17.10;99.90;;;;;;6285776;28;20311;-68
2022/06/10 04:35:47;;;;;;;2.63;2.30;;;17.20;99.90;;;;;;6286708;28;20422;-68
2022/06/10 04:38:52;;;;;;;2.58;2.38;;;17.20;99.90;;;;;;6286361;28;20299;-68
2022/06/10 04:41:58;;;;;;;2.60;2.50;;;17.40;99.90;;;;;;6286680;28;20426;-68
2022/06/10 04:45:04;;;;;;;2.67;2.15;;;17.30;99.90;;;;;;6285928;28;20295;-68
2022/06/10 04:48:16;;;;;;;12.65;2.75;;;17.40;99.90;;;;;;6285902;28;20294;-68
2022/06/10 04:51:21;;;;;;;2.40;2.30;;;17.50;99.90;;;;;;6286402;28;20271;-68
2022/06/10 04:54:27;;;;;;;4.85;2.30;;;17.70;99.90;;;;;;6284326;28;20311;-68
2022/06/10 04:57:34;;;;;;;4.78;2.58;;;17.70;99.90;;;;;;6285640;28;20582;-68
2022/06/10 05:00:43;;;;;;;2.88;2.58;;;17.80;99.90;;;;;;6285936;28;20546;-68
2022/06/10 05:03:49;;;;;;;3.72;2.20;;;17.90;99.90;;;;;;6285647;28;20290;-67
2022/06/10 05:06:54;;;;;;;2.70;2.60;;;17.90;99.90;;;;;;6285898;28;20275;-68
2022/06/10 05:09:59;;;;;;;62.38;5.35;;;17.90;99.90;;;;;;6280855;28;20296;-68
2022/06/10 05:13:06;;;;;;;3.70;2.92;;;17.90;99.90;;;;;;6285371;28;20295;-68
2022/06/10 05:16:13;;;;;;;4.47;2.50;;;17.90;99.90;;;;;;6286124;28;20271;-68
2022/06/10 05:19:18;;;;;;;2.58;2.55;;;18.00;99.90;;;;;;6284989;28;20307;-68
2022/06/10 05:22:24;;;;;;;7.30;2.42;;;18.20;99.90;;;;;;6285595;28;20477;-67
2022/06/10 05:25:29;;;;;;;3.30;2.47;;;18.30;99.90;;;;;;6285615;28;20271;-67
2022/06/10 05:28:36;;;;;;;4.85;2.70;;;18.30;99.90;;;;;;6285546;28;20311;-68
2022/06/10 05:31:41;;;;;;;8.70;2.58;;;18.30;99.90;;;;;;6285580;28;20275;-69
2022/06/10 05:34:47;;;;;;;3.00;2.53;;;18.40;99.90;;;;;;6284769;28;20286;-67
2022/06/10 05:37:52;;;;;;;4.53;2.78;;;18.50;99.90;;;;;;6285108;28;20294;-68
2022/06/10 05:42:04;;;;;;;3.53;2.45;;;18.50;99.90;;;;;;6285801;28;20274;-68
2022/06/10 05:44:25;;;;;;;2.25;2.00;;;18.50;99.90;;;;;;6284579;28;20295;-68
2022/06/10 05:47:33;;;;;;;4.00;2.15;;;18.50;99.90;;;;;;6285055;28;20545;-68
2022/06/10 05:50:43;;;;;;;2.53;2.40;;;18.50;99.90;;;;;;6285425;28;20425;-68
2022/06/10 05:53:48;;;;;;;3.80;2.55;;;18.50;99.90;;;;;;6284925;28;20697;-67
2022/06/10 05:56:53;;;;;;;3.20;2.95;;;18.50;99.90;;;;;;6285290;28;20562;-68
2022/06/10 06:00:00;;;;;;;2.35;2.28;;;18.50;99.90;;;;;;6284999;28;20322;-68
2022/06/10 06:03:11;;;;;;;2.50;2.40;;;18.50;99.90;;;;;;6284367;28;20295;-68
2022/06/10 06:06:18;;;;;;;2.83;2.30;;;18.50;99.90;;;;;;6285013;28;20271;-69
2022/06/10 06:09:23;;;;;;;2.85;2.65;;;18.40;99.90;;;;;;6284770;28;20307;-68
2022/06/10 06:12:29;;;;;;;3.55;2.50;;;18.50;99.90;;;;;;6284640;28;20295;-68
2022/06/10 06:15:35;;;;;;;5.03;2.60;;;18.50;99.90;;;;;;6285294;28;20272;-68
2022/06/10 06:18:41;;;;;;;2.20;2.20;;;18.50;99.90;;;;;;6284413;28;20294;-68
2022/06/10 06:21:46;;;;;;;3.60;2.28;;;18.40;99.90;;;;;;6285074;28;20554;-68
2022/06/10 06:24:53;;;;;;;3.92;2.42;;;18.40;99.90;;;;;;6284171;28;20294;-68
2022/06/10 06:27:59;;;;;;;5.95;2.47;;;18.40;99.90;;;;;;6284807;28;20295;-68
2022/06/10 06:31:06;;;;;;;4.45;2.40;;;18.50;99.90;;;;;;6285138;28;20466;-68
2022/06/10 06:34:12;;;;;;;8.02;2.67;;;18.50;99.90;;;;;;6283929;28;20299;-68
2022/06/10 06:37:18;;;;;;;2.22;2.13;;;18.50;99.90;;;;;;6284623;28;20271;-68
2022/06/10 06:40:23;;;;;;;2.65;2.45;;;18.60;99.90;;;;;;6285373;28;20314;-68
2022/06/10 06:43:29;;;;;;;3.45;2.50;;;18.60;99.90;;;;;;6283969;28;20295;-68
2022/06/10 06:46:39;;;;;;;3.35;2.53;;;18.60;99.90;;;;;;6287078;28;20574;-68
2022/06/10 06:49:45;;;;;;;2.83;2.60;;;18.60;99.90;;;;;;6288602;28;20303;-68
2022/06/10 06:52:50;;;;;;;4.40;2.78;;;18.60;99.90;;;;;;6288660;28;20291;-68
2022/06/10 06:55:56;;;;;;;3.95;2.65;;;18.60;99.90;;;;;;6289215;28;20291;-68
2022/06/10 06:59:02;;;;;;;6.18;2.90;;;18.60;99.90;;;;;;6288563;28;20299;-68
2022/06/10 07:02:10;;;;;;;4.15;2.47;;;18.50;99.90;;;;;;6289084;28;20274;-68
2022/06/10 07:05:16;;;;;;;4.82;2.55;;;18.60;99.90;;;;;;6288132;28;20275;-68
2022/06/10 07:08:21;;;;;;;3.13;2.88;;;18.70;99.90;;;;;;6288066;28;20294;-68
2022/06/10 07:11:27;;;;;;;4.85;2.70;;;18.80;99.90;;;;;;6288271;28;20271;-68
2022/06/10 07:14:32;;;;;;;2.58;2.47;;;18.80;99.90;;;;;;6288394;28;20295;-68
2022/06/10 07:17:38;;;;;;;3.35;2.80;;;18.80;99.90;;;;;;6287823;28;20290;-68
2022/06/10 07:20:45;;;;;;;2.80;2.70;;;18.90;99.90;;;;;;6288456;28;20294;-68
2022/06/10 07:23:50;;;;;;;3.38;2.90;;;18.90;99.90;;;;;;6287733;28;20302;-68
2022/06/10 07:26:55;;;;;;;5.15;3.25;;;18.80;99.90;;;;;;6288349;28;20275;-68
2022/06/10 07:30:00;;;;;;;7.18;2.85;;;18.90;99.90;;;;;;6287770;28;20484;-68
2022/06/10 07:33:09;;;;;;;4.90;2.50;;;18.80;99.90;;;;;;6287468;28;20290;-68
2022/06/10 07:36:15;;;;;;;3.00;2.70;;;18.80;99.90;;;;;;6288265;28;20291;-68
2022/06/10 07:39:21;;;;;;;2.67;2.47;;;18.90;99.90;;;;;;6287119;28;20585;-68
2022/06/10 07:42:26;;;;;;;6.32;2.50;;;18.80;99.90;;;;;;6287075;28;20276;-68
2022/06/10 07:45:32;;;;;;;3.13;2.90;;;18.80;99.90;;;;;;6287899;28;20271;-68
2022/06/10 07:48:38;;;;;;;12.52;3.40;;;18.80;99.90;;;;;;6287230;28;20299;-68
2022/06/10 07:51:43;;;;;;;3.53;3.30;;;18.90;99.90;;;;;;6287494;28;20275;-68
2022/06/10 07:54:49;;;;;;;3.38;3.22;;;18.90;99.90;;;;;;6287099;28;20294;-68
2022/06/10 07:57:54;;;;;;;2.80;2.60;;;18.90;99.90;;;;;;6286660;28;20362;-68
2022/06/10 08:01:00;;;;;;;4.25;2.90;;;19.00;99.90;;;;;;6287047;28;20290;-68
2022/06/10 08:04:08;;;;;;;4.65;3.15;;;19.00;99.90;;;;;;6286696;28;20306;-68
2022/06/10 08:07:13;;;;;;;6.30;3.00;;;19.10;99.90;;;;;;6285365;28;20287;-68
2022/06/10 08:10:22;;;;;;;3.60;3.38;;;19.10;99.90;;;;;;6287405;28;20290;-68
2022/06/10 08:13:29;;;;;;;4.35;3.25;;;19.20;99.90;;;;;;6286535;28;20590;-68
2022/06/10 08:16:37;;;;;;;3.22;3.03;;;19.20;99.90;;;;;;6287584;28;20275;-68
2022/06/10 08:19:43;;;;;;;3.22;2.88;;;19.40;99.90;;;;;;6286598;28;20298;-68
2022/06/10 08:22:48;;;;;;;3.45;3.15;;;19.50;99.90;;;;;;6286436;28;20291;-68
2022/06/10 08:25:55;;;;;;;3.13;2.90;;;19.60;99.90;;;;;;6286926;28;20267;-68
2022/06/10 08:29:03;;;;;;;2.78;2.67;;;19.70;99.90;;;;;;6285895;28;20300;-68
2022/06/10 08:32:09;;;;;;;2.80;2.70;;;19.80;99.90;;;;;;6286777;28;20271;-68
2022/06/10 08:35:17;;;;;;;2.50;2.42;;;19.90;99.90;;;;;;6287024;28;20356;-68
2022/06/10 08:38:22;;;;;;;2.78;2.50;;;20.10;99.90;;;;;;6286508;28;20295;-68
2022/06/10 08:41:33;;;;;;;2.40;2.33;;;20.00;99.90;;;;;;6286662;28;20622;-68
2022/06/10 08:44:45;;;;;;;2.65;2.40;;;20.10;99.90;;;;;;6286115;28;20290;-68
2022/06/10 08:48:04;;;;;;;3.08;2.92;;;20.10;99.90;;;;;;6267978;28;20291;-68
2022/06/10 08:51:17;;;;;;;3.33;2.83;;;20.20;99.90;;;;;;6286334;28;20276;-68
2022/06/10 08:54:27;;;;;;;2.70;2.50;;;20.30;99.90;;;;;;6285589;28;20364;-68
2022/06/10 08:57:37;;;;;;;2.90;2.80;;;20.40;99.90;;;;;;6286004;28;20291;-68
2022/06/10 09:00:43;;;;;;;3.08;2.83;;;20.40;99.70;;;;;;6286257;28;20290;-68
2022/06/10 09:03:56;;;;;;;2.80;2.60;;;20.50;99.40;;;;;;6285478;28;20321;-68
2022/06/10 09:07:11;;;;;;;3.05;2.85;;;20.70;99.80;;;;;;6285838;28;20310;-68
2022/06/10 09:10:25;;;;;;;2.97;2.88;;;20.80;99.80;;;;;;6284070;28;20298;-68
2022/06/10 09:13:38;;;;;;;2.90;2.70;;;20.90;99.20;;;;;;6285097;28;20294;-67
2022/06/10 09:16:50;;;;;;;3.47;3.05;;;20.90;99.00;;;;;;6286174;28;20271;-67
2022/06/10 09:20:04;;;;;;;2.75;2.60;;;20.80;99.00;;;;;;6284948;28;20587;-67
2022/06/10 09:23:18;;;;;;;3.15;3.03;;;20.90;99.70;;;;;;6284961;28;20291;-67
2022/06/10 09:26:32;;;;;;;3.13;2.92;;;20.90;98.50;;;;;;6285379;28;20276;-68
2022/06/10 09:29:38;;;;;;;2.92;2.72;;;20.90;98.60;;;;;;6284758;28;20300;-67
2022/06/10 09:32:54;;;;;;;2.80;2.65;;;21.00;99.50;;;;;;6285248;28;20581;-68
2022/06/10 09:36:05;;;;;;;2.75;2.55;;;21.20;98.10;;;;;;6285374;28;20271;-68
2022/06/10 09:43:27;;;;;;;2.65;2.55;;;21.40;98.50;;;;;;6160804;28;20298;-67
2022/06/10 09:46:45;;;;;;;2.55;2.45;;;21.50;96.80;;;;;;6285462;28;20271;-68
2022/06/10 09:50:17;;;;;;;2.70;2.50;;;21.40;97.00;;;;;;6284914;28;20315;-68
2022/06/10 09:53:50;;;;;;;4.45;2.50;;;21.50;97.10;;;;;;6284938;28;20294;-67
2022/06/10 09:57:28;;;;;;;3.13;2.80;;;21.50;97.20;;;;;;6285056;28;20267;-68
2022/06/10 10:00:37;;;;;;;3.05;2.83;;;21.50;96.90;;;;;;6283958;28;20367;-67
2022/06/10 10:04:01;;;;;;;2.85;2.65;;;21.50;97.10;;;;;;6284505;28;20296;-67
2022/06/10 10:07:15;;;;;;;4.93;2.45;;;21.70;97.10;;;;;;6284631;28;20274;-68
2022/06/10 10:10:28;;;;;;;2.83;2.72;;;21.80;97.40;;;;;;6283815;28;20295;-68
2022/06/10 10:13:58;;;;;;;3.38;3.08;;;22.00;97.10;;;;;;6284533;28;20334;-67
2022/06/10 10:17:25;;;;;;;3.30;3.10;;;22.00;96.60;;;;;;6284904;28;20271;-67
2022/06/10 10:20:46;;;;;;;4.30;4.00;;;22.00;96.40;;;;;;6286215;28;20485;-68
2022/06/10 10:23:54;;;;;;;4.93;3.28;;;22.00;97.10;;;;;;6289209;28;20291;-67
2022/06/10 10:27:00;;;;;;;3.25;3.05;;;22.00;97.20;;;;;;6289973;28;20271;-67
2022/06/10 10:30:17;;;;;;;3.65;3.40;;;22.10;96.60;;;;;;6288901;28;20535;-67
2022/06/10 10:33:23;;;;;;;3.63;3.53;;;22.00;96.60;;;;;;6288700;28;20295;-67
2022/06/10 10:36:46;;;;;;;3.50;3.30;;;22.00;96.80;;;;;;6289435;28;20275;-66
2022/06/10 10:39:55;;;;;;;3.13;3.13;;;22.00;96.80;;;;;;6289299;28;20578;-67
2022/06/10 10:43:06;;;;;;;4.47;3.55;;;22.00;97.20;;;;;;6288188;28;20571;-67
2022/06/10 10:46:33;;;;;;;4.80;3.13;;;22.10;96.30;;;;;;6289160;28;20271;-67
2022/06/10 10:49:43;;;;;;;3.30;3.10;;;22.10;96.30;;;;;;6288803;28;20323;-67
2022/06/10 10:52:49;;;;;;;3.08;3.00;;;22.00;96.10;;;;;;6288350;28;20306;-67
2022/06/10 10:55:57;;;;;;;3.72;3.42;;;22.10;96.30;;;;;;6289030;28;20566;-67
2022/06/10 10:59:02;;;;;;;9.82;3.25;;;22.20;96.10;;;;;;6288361;28;20594;-67
2022/06/10 11:02:36;;;;;;;8.15;3.67;;;22.40;96.70;;;;;;6288723;28;20290;-67
2022/06/10 11:05:49;;;;;;;3.50;3.22;;;22.40;95.70;;;;;;6288032;28;20558;-67
2022/06/10 11:08:59;;;;;;;4.45;2.97;;;22.60;95.60;;;;;;6287629;28;20307;-67
2022/06/10 11:12:06;;;;;;;3.33;2.88;;;22.60;95.00;;;;;;6288238;28;20465;-67
2022/06/10 11:15:19;;;;;;;3.50;3.20;;;22.60;95.40;;;;;;6287328;28;20275;-67
2022/06/10 11:18:26;;;;;;;5.85;3.30;;;22.60;95.20;;;;;;6288252;28;20299;-68
2022/06/10 11:21:31;;;;;;;2.90;2.78;;;22.60;94.90;;;;;;6288406;28;20290;-68
2022/06/10 11:24:40;;;;;;;3.05;2.95;;;22.60;95.10;;;;;;6287566;28;20386;-68
2022/06/10 11:28:16;;;;;;;3.08;2.78;;;22.60;95.30;;;;;;6287659;28;20585;-68
2022/06/10 11:31:26;;;;;;;3.05;2.90;;;22.70;95.20;;;;;;6287529;28;20271;-68
2022/06/10 11:34:37;;;;;;;3.15;2.97;;;22.70;94.90;;;;;;6287683;28;20302;-69
2022/06/10 11:37:42;;;;;;;3.00;2.90;;;22.80;95.20;;;;;;6287544;28;20302;-68
2022/06/10 11:40:53;;;;;;;5.72;3.28;;;22.90;95.20;;;;;;6288038;28;20373;-68
2022/06/10 11:44:07;;;;;;;2.72;2.63;;;23.00;94.90;;;;;;6287332;28;20575;-68
2022/06/10 11:47:28;;;;;;;3.08;2.78;;;23.00;95.00;;;;;;6286832;28;20271;-69
2022/06/10 11:50:42;;;;;;;3.40;3.10;;;23.10;94.70;;;;;;6288243;28;20287;-68
2022/06/10 11:53:53;;;;;;;2.88;2.78;;;23.20;94.60;;;;;;6287337;28;20586;-68
2022/06/10 12:00:36;;;;;;;3.08;2.80;;;23.30;94.70;;;;;;6286970;28;20275;-68
2022/06/10 12:03:52;;;;;;;3.00;2.90;;;23.20;94.50;;;;;;6286568;28;20302;-68
2022/06/10 12:07:03;;;;;;;4.55;3.22;;;23.20;94.40;;;;;;6286853;28;20272;-68
2022/06/10 12:10:16;;;;;;;3.40;3.30;;;23.20;94.40;;;;;;6286737;28;20303;-68
2022/06/10 12:13:23;;;;;;;3.40;3.17;;;23.20;94.50;;;;;;6286647;28;20295;-69
2022/06/10 12:16:31;;;;;;;3.50;3.40;;;23.10;94.60;;;;;;6287283;28;20267;-68
2022/06/10 12:19:41;;;;;;;3.17;2.92;;;23.10;94.50;;;;;;6286410;28;20299;-68
2022/06/10 12:22:48;;;;;;;3.03;3.03;;;23.20;94.70;;;;;;6286466;28;20295;-67
2022/06/10 12:26:07;;;;;;;3.72;3.42;;;23.10;94.70;;;;;;6286902;28;20271;-68
2022/06/10 12:29:17;;;;;;;3.35;3.17;;;23.20;94.90;;;;;;6286547;28;20303;-68
2022/06/10 12:32:28;;;;;;;5.22;4.93;;;23.20;94.70;;;;;;6286063;28;20547;-68
2022/06/10 12:35:36;;;;;;;5.05;3.50;;;23.20;94.70;;;;;;6286620;28;20295;-68
2022/06/10 12:38:44;;;;;;;3.25;3.22;;;23.40;94.90;;;;;;6286343;28;20302;-68
2022/06/10 12:41:52;;;;;;;5.38;3.55;;;23.30;95.00;;;;;;6286567;28;20267;-67
2022/06/10 12:44:59;;;;;;;3.75;3.55;;;23.50;95.00;;;;;;6285379;28;20598;-67
2022/06/10 12:48:13;;;;;;;3.38;3.33;;;23.20;95.10;;;;;;6285755;28;20295;-67
2022/06/10 12:51:31;;;;;;;5.25;3.67;;;23.20;95.30;;;;;;6285869;28;20267;-68
2022/06/10 12:54:43;;;;;;;3.58;3.22;;;23.00;95.40;;;;;;6285729;28;20295;-67
2022/06/10 12:57:50;;;;;;;3.75;3.45;;;23.10;95.80;;;;;;6285098;28;20292;-67
2022/06/10 13:01:14;;;;;;;3.90;3.70;;;23.20;95.80;;;;;;6285771;28;20271;-67
2022/06/10 13:04:57;;;;;;;3.97;3.63;;;23.50;96.00;;;;;;6285265;28;20295;-67
2022/06/10 13:08:02;;;;;;;3.95;3.60;;;23.40;95.80;;;;;;6285158;28;20298;-67
2022/06/10 13:11:12;;;;;;;4.28;4.07;;;23.60;95.70;;;;;;6302820;28;20285;-67
2022/06/10 13:14:36;;;;;;;4.43;3.90;;;23.70;95.70;;;;;;6310469;28;20235;-67
2022/06/10 13:17:55;;;;;;;4.00;3.80;;;23.60;95.40;;;;;;6310375;28;20290;-68
2022/06/10 13:21:11;;;;;;;4.72;4.40;;;23.70;95.70;;;;;;6311093;28;20271;-67
2022/06/10 13:24:17;;;;;;;4.82;3.80;;;23.60;95.80;;;;;;6310432;28;20299;-68
2022/06/10 13:27:26;;;;;;;4.88;3.95;;;23.80;95.70;;;;;;6309621;28;20553;-69
2022/06/10 13:30:34;;;;;;;6.78;4.05;;;24.90;94.60;;;;;;6310811;28;20270;-66
2022/06/10 13:33:57;;;;;;;4.10;4.00;;;25.30;94.10;;;;;;6310107;28;20303;-69
2022/06/10 13:37:13;;;;;;;5.35;4.15;;;25.40;92.30;;;;;;6310192;28;20550;-67
2022/06/10 13:40:23;;;;;;;4.05;3.90;;;26.90;91.10;;;;;;6309579;28;20570;-69
2022/06/10 13:43:33;;;;;;;4.32;3.90;;;26.30;90.20;;;;;;6309797;28;20298;-67
2022/06/10 13:46:40;;;;;;;4.72;4.18;;;25.50;91.90;;;;;;6310322;28;20271;-67
2022/06/10 13:50:16;;;;;;;10.15;4.22;;;24.80;92.60;;;;;;6309345;28;20299;-67
2022/06/10 13:53:28;;;;;;;7.60;4.30;;;24.30;93.30;;;;;;6309240;28;20310;-67
2022/06/10 13:56:42;;;;;;;4.55;4.15;;;24.00;93.90;;;;;;6313930;28;20291;-67
2022/06/10 13:59:58;;;;;;;3.83;3.72;;;23.70;94.60;;;;;;6314468;28;20298;-67
2022/06/10 14:03:24;;;;;;;4.68;4.30;;;24.20;94.80;;;;;;6313986;28;20291;-67
2022/06/10 14:06:32;;;;;;;5.03;3.95;;;25.10;93.30;;;;;;6315166;28;20274;-68
2022/06/10 14:09:39;;;;;;;6.07;4.20;;;25.40;92.40;;;;;;6311885;28;20323;-67
2022/06/10 14:12:58;;;;;;;4.43;4.22;;;25.10;92.60;;;;;;6310700;28;20290;-68
2022/06/10 14:16:05;;;;;;;5.20;4.20;;;24.90;92.70;;;;;;6314205;28;20350;-68
2022/06/10 14:19:14;;;;;;;4.68;4.30;;;24.60;93.30;;;;;;6314350;28;20574;-68
2022/06/10 14:22:23;;;;;;;5.15;4.15;;;24.40;94.10;;;;;;6314193;28;20266;-68
2022/06/10 14:25:28;;;;;;;4.82;4.22;;;24.20;94.30;;;;;;6314326;28;20290;-68
2022/06/10 14:28:34;;;;;;;4.70;4.30;;;24.30;94.10;;;;;;6313725;28;20299;-68
2022/06/10 14:31:46;;;;;;;4.95;4.07;;;24.10;94.10;;;;;;6313909;28;20274;-68
2022/06/10 14:34:56;;;;;;;4.25;4.15;;;24.20;94.20;;;;;;6313414;28;20298;-68
2022/06/10 14:38:04;;;;;;;4.45;4.25;;;24.30;94.30;;;;;;6313598;28;20304;-69
2022/06/10 14:41:22;;;;;;;4.63;4.43;;;24.20;94.50;;;;;;6313825;28;20270;-68
2022/06/10 14:44:33;;;;;;;7.45;4.75;;;24.60;94.30;;;;;;6313540;28;20311;-69
2022/06/10 14:48:02;;;;;;;8.18;4.50;;;25.10;93.60;;;;;;6313525;28;20489;-68
2022/06/10 14:51:19;;;;;;;5.63;5.00;;;25.30;93.10;;;;;;6313804;28;20549;-68
2022/06/10 14:54:25;;;;;;;5.85;4.95;;;25.60;92.70;;;;;;6313574;28;20319;-69
2022/06/10 14:57:31;;;;;;;5.10;4.78;;;25.10;93.60;;;;;;6313327;28;20576;-68
2022/06/10 15:00:40;;;;;;;5.15;4.65;;;24.70;93.90;;;;;;6313867;28;20266;-67
2022/06/10 15:03:47;;;;;;;5.03;4.70;;;24.70;94.70;;;;;;6312984;28;20286;-67
2022/06/10 15:06:59;;;;;;;4.80;4.60;;;24.50;95.10;;;;;;6312145;28;20291;-67
2022/06/10 15:10:10;;;;;;;5.07;4.68;;;24.30;94.60;;;;;;6306802;28;20303;-67
2022/06/10 15:13:21;;;;;;;5.25;4.95;;;24.20;94.90;;;;;;6288320;28;20294;-69
2022/06/10 15:16:27;;;;;;;5.18;4.90;;;24.20;95.20;;;;;;6288347;28;20275;-68
2022/06/10 15:19:51;;;;;;;5.60;5.13;;;24.30;95.50;;;;;;6288192;28;20314;-67
2022/06/10 15:22:57;;;;;;;5.45;5.07;;;24.80;94.70;;;;;;6287729;28;20291;-67
2022/06/10 15:26:03;;;;;;;5.50;5.03;;;24.60;95.10;;;;;;6287788;28;20411;-67
2022/06/10 15:29:14;;;;;;;5.30;5.10;;;24.30;95.40;;;;;;6287385;28;20474;-67
2022/06/10 15:32:21;;;;;;;5.38;5.18;;;24.00;96.10;;;;;;6287680;28;20518;-67
2022/06/10 15:42:34;;;;;;;6.20;5.80;;;24.60;95.70;;;;;;6213911;28;20289;-67
2022/06/10 15:45:39;;;;;;;5.97;5.53;;;24.30;95.50;;;;;;6287675;28;20295;-67
2022/06/10 15:48:44;;;;;;;5.63;5.32;;;24.10;96.30;;;;;;6286736;28;20303;-67
2022/06/10 15:51:55;;;;;;;6.22;5.65;;;23.80;96.80;;;;;;6287413;28;20438;-69
2022/06/10 15:58:42;;;;;;;6.80;5.22;;;23.60;97.40;;;;;;6186317;28;20310;-68
2022/06/10 16:01:47;;;;;;;6.85;5.80;;;23.60;97.20;;;;;;6186782;28;20349;-68
2022/06/10 16:04:54;;;;;;;5.55;5.35;;;23.50;97.40;;;;;;6283893;28;20295;-68
2022/06/10 16:08:01;;;;;;;5.40;5.20;;;23.60;97.50;;;;;;6286500;28;20350;-68
2022/06/10 16:11:11;;;;;;;5.75;5.28;;;23.40;97.80;;;;;;6296172;28;20290;-68
2022/06/10 16:14:16;;;;;;;7.88;5.53;;;23.40;98.00;;;;;;6311065;28;20299;-67
2022/06/10 16:17:28;;;;;;;5.90;5.53;;;23.40;98.00;;;;;;6310383;28;20274;-68
2022/06/10 16:20:33;;;;;;;5.82;5.32;;;23.40;98.20;;;;;;6311561;28;20270;-68
2022/06/10 16:23:40;;;;;;;6.13;5.65;;;23.30;98.30;;;;;;6311168;28;20294;-68
2022/06/10 16:26:46;;;;;;;6.53;5.50;;;23.50;98.20;;;;;;6311499;28;20598;-68
2022/06/10 16:29:56;;;;;;;5.70;5.40;;;23.40;98.30;;;;;;6310808;28;20294;-68
2022/06/10 16:33:02;;;;;;;5.60;5.43;;;23.40;98.70;;;;;;6310599;28;20290;-68
2022/06/10 16:36:11;;;;;;;6.13;5.72;;;23.30;99.00;;;;;;6311264;28;20306;-68
2022/06/10 16:39:18;;;;;;;5.25;4.93;;;23.40;98.90;;;;;;6310754;28;20302;-68
2022/06/10 16:42:27;;;;;;;5.63;5.32;;;23.50;98.60;;;;;;6310490;28;20270;-69
2022/06/10 16:45:33;;;;;;;6.07;5.68;;;23.50;98.60;;;;;;6310724;28;20290;-68
2022/06/10 16:48:38;;;;;;;5.53;5.32;;;23.60;98.30;;;;;;6310048;28;20374;-68
2022/06/10 16:51:44;;;;;;;5.63;5.43;;;23.40;98.70;;;;;;6310797;28;20275;-68
2022/06/10 16:54:54;;;;;;;5.90;5.70;;;23.40;98.60;;;;;;6310581;28;20297;-68